Hlavní strana
METAR-TAF:

METAR-TAF

Letiště :

Kuvajt, Kuvajt

zeměpisná šířka: 29-13N, zeměpisná délka: 047-59E, výška: 55 m

Aktuální stav počasí

Zpráva byla vytvořena před 21 minutami, v 21:00 UTC
Jihovýchodní vítr 8 kt
Teplota 32°C
Vlhkost vzduchu 84%
Tlak 1007 hPa
Viditelnost: 7000 m
Jasno

METAR: OKBK 182100Z 14008KT 7000 SKC 32/29 Q1007 NOSIG

Čas: 00:21 (21:21 UTC)

Předpověď počasí

Zpráva byla vytvořena před 4 hodinami a 6 minutami, v 17:15 UTC
Předpověď platná od 18 v 18 UTC do 19 v 24 UTC
Jihojihovýchodní vítr 10 kt
Viditelnost: 6000 m
Jasno
Dočasný
od 18 v 22 UTC do 19 v 05 UTC
vítr z různých směrů 3 kt
Viditelnost: 3000 m
kouřmo

TAF: OKBK 181715Z 1818/1924 15010KT 6000 SKC TEMPO 1822/1905 VRB03KT 3000 BR

Stav a předpovědi počasí z více než 4 000 letišť (zprávy METAR a TAF).

Červené a žluté tečky na mapě představují dostupné meteorologické stanice.

Když kurzor umístíte na tečku, zobrazí se název stanice.

Pak kliknutím zobrazíte stav a předpověď počasí.

Chcete-li změnit mapu, kliknutím na zelené tlačítko se znaménkem +mapu přiblížíte, kliknutím na zelené tlačítko se znaménkem – mapu oddálíte a kliknutím na zelené šipky přejdete na sousední mapy.


METAR-TAF: